createdAt,value
2022-10-09T00:01:13.955Z,4.65
2022-10-09T00:03:45.554Z,5.13
2022-10-09T00:06:17.891Z,5.13
2022-10-09T00:08:44.831Z,4.28
2022-10-09T00:11:20.305Z,5.57
2022-10-09T00:13:47.966Z,4.55
2022-10-09T00:16:15.875Z,4.25
2022-10-09T00:18:43.052Z,4.35
2022-10-09T00:21:24.185Z,4.07
2022-10-09T00:23:55.029Z,4.80
2022-10-09T00:26:22.355Z,4.00
2022-10-09T00:28:49.835Z,3.70
2022-10-09T00:31:16.906Z,4.40
2022-10-09T00:33:44.061Z,4.95
2022-10-09T00:36:14.313Z,3.85
2022-10-09T00:38:44.288Z,3.90
2022-10-09T00:41:16.018Z,4.35
2022-10-09T00:43:54.901Z,3.42
2022-10-09T00:46:45.642Z,5.60
2022-10-09T00:49:26.985Z,3.63
2022-10-09T00:51:55.113Z,3.93
2022-10-09T00:54:26.985Z,4.30
2022-10-09T00:56:54.474Z,4.55
2022-10-09T00:59:21.600Z,3.88
2022-10-09T01:01:48.058Z,4.65
2022-10-09T01:04:14.789Z,3.38
2022-10-09T01:06:59.452Z,4.45
2022-10-09T01:09:50.529Z,3.45
2022-10-09T01:12:29.194Z,4.32
2022-10-09T01:15:17.678Z,4.88
2022-10-09T01:17:53.802Z,3.95
2022-10-09T01:20:31.670Z,5.22
2022-10-09T01:23:03.540Z,3.55
2022-10-09T01:25:52.704Z,4.47
2022-10-09T01:28:24.005Z,4.70
2022-10-09T01:30:50.711Z,4.45
2022-10-09T01:33:18.208Z,4.00
2022-10-09T01:35:45.445Z,4.20
2022-10-09T01:38:11.912Z,4.30
2022-10-09T01:40:39.275Z,4.32
2022-10-09T01:43:05.825Z,3.55
2022-10-09T01:45:45.207Z,4.10
2022-10-09T01:48:22.331Z,3.35
2022-10-09T01:51:01.057Z,3.65
2022-10-09T01:53:31.445Z,4.25
2022-10-09T01:56:14.432Z,3.92
2022-10-09T01:58:55.695Z,3.92
2022-10-09T02:01:29.523Z,3.78
2022-10-09T02:03:59.705Z,3.67
2022-10-09T02:06:28.177Z,3.33
2022-10-09T02:08:55.191Z,4.13
2022-10-09T02:11:26.189Z,4.25
2022-10-09T02:13:55.257Z,3.80
2022-10-09T02:16:37.624Z,5.20
2022-10-09T02:19:12.869Z,4.97
2022-10-09T02:21:54.407Z,4.65
2022-10-09T02:24:22.908Z,4.55
2022-10-09T02:26:50.941Z,4.63
2022-10-09T02:29:17.616Z,4.95
2022-10-09T02:31:44.661Z,5.07
2022-10-09T02:34:19.538Z,4.57
2022-10-09T02:36:46.738Z,3.65
2022-10-09T02:39:13.157Z,3.17
2022-10-09T02:41:41.035Z,3.90
2022-10-09T02:44:07.823Z,4.22
2022-10-09T02:46:34.943Z,4.13
2022-10-09T02:49:01.487Z,5.30
2022-10-09T02:51:27.825Z,5.70
2022-10-09T02:53:54.561Z,4.70
2022-10-09T02:56:22.286Z,4.63
2022-10-09T02:58:48.798Z,5.53
2022-10-09T03:01:15.256Z,5.07
2022-10-09T03:03:42.024Z,6.18
2022-10-09T03:06:21.003Z,5.82
2022-10-09T03:08:49.394Z,4.35
2022-10-09T03:11:17.453Z,5.20
2022-10-09T03:13:44.894Z,4.95
2022-10-09T03:16:14.644Z,4.63
2022-10-09T03:18:41.610Z,4.93
2022-10-09T03:21:09.968Z,5.20
2022-10-09T03:23:38.074Z,5.05
2022-10-09T03:26:08.274Z,4.85
2022-10-09T03:28:40.276Z,5.10
2022-10-09T03:31:07.318Z,5.20
2022-10-09T03:33:35.435Z,5.90
2022-10-09T03:36:04.978Z,4.88
2022-10-09T03:38:31.428Z,4.15
2022-10-09T03:40:59.054Z,4.75
2022-10-09T03:43:25.761Z,5.03
2022-10-09T03:45:52.618Z,4.63
2022-10-09T03:48:18.990Z,4.88
2022-10-09T03:50:45.513Z,4.82
2022-10-09T03:53:12.945Z,4.65
2022-10-09T03:55:40.581Z,4.47
2022-10-09T03:58:07.384Z,4.15
2022-10-09T04:00:35.445Z,5.60
2022-10-09T04:03:02.122Z,3.92
2022-10-09T04:05:37.208Z,4.40
2022-10-09T04:08:03.550Z,4.70
2022-10-09T04:10:29.872Z,5.28
2022-10-09T04:12:56.381Z,4.53
2022-10-09T04:15:25.648Z,4.28
2022-10-09T04:17:52.088Z,5.18
2022-10-09T04:20:20.516Z,4.80
2022-10-09T04:22:47.310Z,5.25
2022-10-09T04:25:17.006Z,4.90
2022-10-09T04:27:43.314Z,5.07
2022-10-09T04:30:10.696Z,4.85
2022-10-09T04:32:39.763Z,4.97
2022-10-09T04:35:06.522Z,3.85
2022-10-09T04:37:32.900Z,4.45
2022-10-09T04:39:59.242Z,4.15
2022-10-09T04:42:25.552Z,4.10
2022-10-09T04:44:51.991Z,3.83
2022-10-09T04:47:18.353Z,4.22
2022-10-09T04:49:44.784Z,4.88
2022-10-09T04:52:11.115Z,3.92
2022-10-09T04:54:37.495Z,4.78
2022-10-09T04:57:06.787Z,3.97
2022-10-09T04:59:33.109Z,3.75
2022-10-09T05:01:59.477Z,4.30
2022-10-09T05:04:26.815Z,4.00
2022-10-09T05:06:55.940Z,4.78
2022-10-09T05:09:22.257Z,4.35
2022-10-09T05:11:48.595Z,3.85
2022-10-09T05:14:15.077Z,4.05
2022-10-09T05:17:08.386Z,4.25
2022-10-09T05:19:27.848Z,3.75
2022-10-09T05:21:54.910Z,3.95
2022-10-09T05:24:21.247Z,4.05
2022-10-09T05:26:47.630Z,3.75
2022-10-09T05:29:13.960Z,4.95
2022-10-09T05:31:40.518Z,4.80
2022-10-09T05:34:06.906Z,4.68
2022-10-09T05:36:36.014Z,4.55
2022-10-09T05:39:02.410Z,4.20
2022-10-09T05:41:31.209Z,4.38
2022-10-09T05:44:01.959Z,5.07
2022-10-09T05:46:31.445Z,5.65
2022-10-09T05:49:03.136Z,6.50
2022-10-09T05:51:31.709Z,6.47
2022-10-09T05:53:58.896Z,5.00
2022-10-09T05:56:27.639Z,5.60
2022-10-09T05:58:59.135Z,6.70
2022-10-09T06:01:30.283Z,7.35
2022-10-09T06:03:58.529Z,6.32
2022-10-09T06:06:27.596Z,6.50
2022-10-09T06:08:54.358Z,5.65
2022-10-09T06:11:28.492Z,5.65
2022-10-09T06:13:56.094Z,4.82
2022-10-09T06:16:26.517Z,5.63
2022-10-09T06:18:54.086Z,5.63
2022-10-09T06:21:20.958Z,7.38
2022-10-09T06:23:51.645Z,6.38
2022-10-09T06:26:19.043Z,6.10
2022-10-09T06:28:46.214Z,6.20
2022-10-09T06:31:15.759Z,7.25
2022-10-09T06:33:44.417Z,5.57
2022-10-09T06:36:19.212Z,5.72
2022-10-09T06:38:53.017Z,6.47
2022-10-09T06:41:23.110Z,7.28
2022-10-09T06:43:51.710Z,6.20
2022-10-09T06:46:18.886Z,5.85
2022-10-09T06:48:45.332Z,5.68
2022-10-09T06:51:18.031Z,5.68
2022-10-09T06:53:49.276Z,6.30
2022-10-09T06:56:17.750Z,5.70
2022-10-09T06:58:44.986Z,5.07
2022-10-09T07:01:14.551Z,4.55
2022-10-09T07:03:42.640Z,5.03
2022-10-09T07:06:13.373Z,5.30
2022-10-09T07:08:42.325Z,5.00
2022-10-09T07:11:21.379Z,4.57
2022-10-09T07:13:50.868Z,4.63
2022-10-09T07:16:26.556Z,4.47
2022-10-09T07:18:54.093Z,5.32
2022-10-09T07:21:20.983Z,5.78
2022-10-09T07:23:47.744Z,5.70
2022-10-09T07:26:17.134Z,5.55
2022-10-09T07:28:44.613Z,7.75
2022-10-09T07:31:12.169Z,7.88
2022-10-09T07:33:39.323Z,7.80
2022-10-09T07:36:07.048Z,5.30
2022-10-09T07:38:33.645Z,5.80
2022-10-09T07:41:08.261Z,5.00
2022-10-09T07:43:36.875Z,4.70
2022-10-09T07:46:05.082Z,4.95
2022-10-09T07:48:33.347Z,4.78
2022-10-09T07:51:11.325Z,4.22
2022-10-09T07:53:38.605Z,3.92
2022-10-09T07:56:05.777Z,5.35
2022-10-09T07:58:35.911Z,4.03
2022-10-09T08:01:09.871Z,4.60
2022-10-09T08:03:38.088Z,3.80
2022-10-09T08:06:07.589Z,4.80
2022-10-09T08:08:34.114Z,4.95
2022-10-09T08:11:07.739Z,3.95
2022-10-09T08:13:34.672Z,3.88
2022-10-09T08:16:01.496Z,4.97
2022-10-09T08:18:28.116Z,3.38
2022-10-09T08:21:06.754Z,3.38
2022-10-09T08:23:35.116Z,3.13
2022-10-09T08:26:02.277Z,3.60
2022-10-09T08:28:30.723Z,3.83
2022-10-09T08:30:57.189Z,2.90
2022-10-09T08:33:24.871Z,3.38
2022-10-09T08:35:52.997Z,3.90
2022-10-09T08:38:46.104Z,3.80
2022-10-09T08:41:37.838Z,3.50
2022-10-09T08:44:23.951Z,3.40
2022-10-09T08:46:59.230Z,3.45
2022-10-09T08:49:31.685Z,3.10
2022-10-09T08:52:04.812Z,2.38
2022-10-09T08:54:36.345Z,3.65
2022-10-09T08:57:09.746Z,2.88
2022-10-09T08:59:36.286Z,4.03
2022-10-09T09:05:12.317Z,3.00
2022-10-09T09:07:47.764Z,2.88
2022-10-09T09:10:22.707Z,3.58
2022-10-09T09:12:57.157Z,2.97
2022-10-09T09:15:58.458Z,2.53
2022-10-09T09:18:54.607Z,2.42
2022-10-09T09:21:42.911Z,2.70
2022-10-09T09:24:17.724Z,2.67
2022-10-09T09:26:48.849Z,2.90
2022-10-09T09:29:21.414Z,3.67
2022-10-09T09:31:53.560Z,2.58
2022-10-09T09:34:28.871Z,2.15
2022-10-09T09:36:57.938Z,2.47
2022-10-09T09:42:17.480Z,1.88
2022-10-09T09:44:55.156Z,3.15
2022-10-09T09:47:41.817Z,2.15
2022-10-09T09:50:23.365Z,2.53
2022-10-09T09:52:56.182Z,2.30
2022-10-09T09:55:29.544Z,1.75
2022-10-09T09:58:05.542Z,1.92
2022-10-09T10:00:32.871Z,2.83
2022-10-09T10:03:04.754Z,2.42
2022-10-09T10:05:36.768Z,2.45
2022-10-09T10:08:23.118Z,2.13
2022-10-09T10:10:52.110Z,1.95
2022-10-09T10:13:22.092Z,2.13
2022-10-09T10:15:55.096Z,2.28
2022-10-09T10:18:24.726Z,2.22
2022-10-09T10:20:54.743Z,1.75
2022-10-09T10:23:41.662Z,2.03
2022-10-09T10:26:21.033Z,1.88
2022-10-09T10:28:53.162Z,1.40
2022-10-09T10:31:33.734Z,2.80
2022-10-09T10:34:04.146Z,2.10
2022-10-09T10:36:33.024Z,1.60
2022-10-09T10:39:12.028Z,2.00
2022-10-09T10:41:45.424Z,2.22
2022-10-09T10:44:25.439Z,2.05
2022-10-09T10:47:00.986Z,3.13
2022-10-09T10:49:32.869Z,2.10
2022-10-09T10:52:35.170Z,2.38
2022-10-09T10:55:10.396Z,2.88
2022-10-09T10:58:01.346Z,1.77
2022-10-09T11:00:29.189Z,1.52
2022-10-09T11:02:58.522Z,1.83
2022-10-09T11:05:34.170Z,2.08
2022-10-09T11:08:21.256Z,2.33
2022-10-09T11:10:58.909Z,2.00
2022-10-09T11:13:33.359Z,1.95
2022-10-09T11:16:09.472Z,2.17
2022-10-09T11:18:42.067Z,2.78
2022-10-09T11:21:17.595Z,2.13
2022-10-09T11:23:50.582Z,1.70
2022-10-09T11:26:34.872Z,2.70
2022-10-09T11:29:08.486Z,1.95
2022-10-09T11:31:42.844Z,2.13
2022-10-09T11:34:18.008Z,2.30
2022-10-09T11:36:45.445Z,2.75
2022-10-09T11:39:19.124Z,2.38
2022-10-09T11:41:48.020Z,2.00
2022-10-09T11:44:20.168Z,2.05
2022-10-09T11:46:50.297Z,2.28
2022-10-09T11:49:23.485Z,1.80
2022-10-09T11:51:49.745Z,2.13
2022-10-09T11:54:19.893Z,2.00
2022-10-09T11:56:58.975Z,2.80
2022-10-09T11:59:43.588Z,1.95
2022-10-09T12:02:24.973Z,2.35
2022-10-09T12:04:55.581Z,1.98
2022-10-09T12:10:20.517Z,2.03
2022-10-09T12:12:59.675Z,1.98
2022-10-09T12:15:47.148Z,2.40
2022-10-09T12:18:28.350Z,1.60
2022-10-09T12:20:57.344Z,2.72
2022-10-09T12:23:28.712Z,1.92
2022-10-09T12:25:56.828Z,2.33
2022-10-09T12:28:35.656Z,2.08
2022-10-09T12:31:05.289Z,2.03
2022-10-09T12:33:39.327Z,2.55
2022-10-09T12:36:13.447Z,2.75
2022-10-09T12:38:40.718Z,2.08
2022-10-09T12:41:19.352Z,2.35
2022-10-09T12:43:48.096Z,2.80
2022-10-09T12:46:14.527Z,2.67
2022-10-09T12:48:43.489Z,2.10
2022-10-09T12:51:35.858Z,2.22
2022-10-09T12:54:09.007Z,1.88
2022-10-09T12:56:38.375Z,2.65
2022-10-09T12:59:07.039Z,1.92
2022-10-09T13:01:34.588Z,2.20
2022-10-09T13:04:05.654Z,2.42
2022-10-09T13:06:38.077Z,1.60
2022-10-09T13:09:07.827Z,2.10
2022-10-09T13:11:41.054Z,2.20
2022-10-09T13:14:24.420Z,2.15
2022-10-09T13:16:50.935Z,2.08
2022-10-09T13:19:26.638Z,2.67
2022-10-09T13:22:19.175Z,2.95
2022-10-09T13:24:46.384Z,2.85
2022-10-09T13:27:14.587Z,2.90
2022-10-09T13:29:42.904Z,2.30
2022-10-09T13:32:12.917Z,2.80
2022-10-09T13:34:39.538Z,2.40
2022-10-09T13:37:06.169Z,2.40
2022-10-09T13:39:32.507Z,2.47
2022-10-09T13:41:59.739Z,2.63
2022-10-09T13:44:46.022Z,2.08
2022-10-09T13:47:12.380Z,2.70
2022-10-09T13:49:38.801Z,2.95
2022-10-09T13:52:05.306Z,3.33
2022-10-09T13:54:31.957Z,2.22
2022-10-09T13:56:58.374Z,3.20
2022-10-09T13:59:24.909Z,3.40
2022-10-09T14:01:52.187Z,3.03
2022-10-09T14:04:20.277Z,3.95
2022-10-09T14:06:46.741Z,3.25
2022-10-09T14:09:13.120Z,2.97
2022-10-09T14:11:39.542Z,3.42
2022-10-09T14:14:06.378Z,3.60
2022-10-09T14:16:32.728Z,3.20
2022-10-09T14:19:01.350Z,3.20
2022-10-09T14:21:28.915Z,3.55
2022-10-09T14:24:00.443Z,3.63
2022-10-09T14:26:28.646Z,2.92
2022-10-09T14:28:58.166Z,4.07
2022-10-09T14:31:24.536Z,4.13
2022-10-09T14:33:56.170Z,3.15
2022-10-09T14:38:49.513Z,2.92
2022-10-09T14:41:20.828Z,2.80
2022-10-09T14:43:53.035Z,3.30
2022-10-09T14:46:19.757Z,2.58
2022-10-09T14:48:49.779Z,3.17
2022-10-09T14:51:19.927Z,3.00
2022-10-09T14:53:47.656Z,3.40
2022-10-09T14:56:17.251Z,2.50
2022-10-09T14:58:44.415Z,2.53
2022-10-09T15:01:16.152Z,3.00
2022-10-09T15:06:11.806Z,1.95
2022-10-09T15:08:42.462Z,2.05
2022-10-09T15:11:10.563Z,1.90
2022-10-09T15:13:38.095Z,1.95
2022-10-09T15:16:09.323Z,2.00
2022-10-09T15:18:36.166Z,2.00
2022-10-09T15:21:03.370Z,1.75
2022-10-09T15:23:30.591Z,2.13
2022-10-09T15:25:59.422Z,2.28
2022-10-09T15:28:26.122Z,2.22
2022-10-09T15:30:55.973Z,1.83
2022-10-09T15:33:22.388Z,2.00
2022-10-09T15:35:51.619Z,2.63
2022-10-09T15:38:21.625Z,2.17
2022-10-09T15:40:56.563Z,2.80
2022-10-09T15:43:25.885Z,2.55
2022-10-09T15:45:56.012Z,3.05
2022-10-09T15:48:24.799Z,2.42
2022-10-09T15:50:53.630Z,2.50
2022-10-09T15:53:23.525Z,3.13
2022-10-09T15:55:53.954Z,1.70
2022-10-09T15:58:31.467Z,2.60
2022-10-09T16:01:03.847Z,3.45
2022-10-09T16:03:33.326Z,3.00
2022-10-09T16:06:04.404Z,1.40
2022-10-09T16:08:31.651Z,3.13
2022-10-09T16:10:58.672Z,2.05
2022-10-09T16:13:26.788Z,2.00
2022-10-09T16:15:53.968Z,2.70
2022-10-09T16:18:22.821Z,2.30
2022-10-09T16:20:50.729Z,4.53
2022-10-09T16:23:18.590Z,8.43
2022-10-09T16:25:56.036Z,6.22
2022-10-09T16:28:22.532Z,4.80
2022-10-09T16:30:49.030Z,3.65
2022-10-09T16:33:18.647Z,4.15
2022-10-09T16:35:46.342Z,5.80
2022-10-09T16:38:13.776Z,5.57
2022-10-09T16:41:02.965Z,8.50
2022-10-09T16:43:33.440Z,6.60
2022-10-09T16:46:19.032Z,4.55
2022-10-09T16:48:50.369Z,3.17
2022-10-09T16:51:36.062Z,1.88
2022-10-09T16:54:05.215Z,3.00
2022-10-09T16:56:34.872Z,3.08
2022-10-09T16:59:04.589Z,2.92
2022-10-09T17:01:32.166Z,3.13
2022-10-09T17:03:59.970Z,3.58
2022-10-09T17:06:35.592Z,5.00
2022-10-09T17:09:02.934Z,3.55
2022-10-09T17:11:30.671Z,3.28
2022-10-09T17:13:57.673Z,2.40
2022-10-09T17:16:28.297Z,2.85
2022-10-09T17:18:55.555Z,3.60
2022-10-09T17:21:21.995Z,3.35
2022-10-09T17:23:52.385Z,3.97
2022-10-09T17:26:20.443Z,3.33
2022-10-09T17:28:49.945Z,3.40
2022-10-09T17:31:19.561Z,3.65
2022-10-09T17:33:48.316Z,4.03
2022-10-09T17:36:18.042Z,4.63
2022-10-09T17:38:45.206Z,4.63
2022-10-09T17:41:13.187Z,4.00
2022-10-09T17:43:39.769Z,3.70
2022-10-09T17:46:06.628Z,3.83
2022-10-09T17:48:34.518Z,4.30
2022-10-09T17:51:02.138Z,4.65
2022-10-09T17:53:28.518Z,4.95
2022-10-09T17:55:56.276Z,3.83
2022-10-09T17:58:24.345Z,4.60
2022-10-09T18:00:51.749Z,5.43
2022-10-09T18:03:19.057Z,5.00
2022-10-09T18:05:48.087Z,5.47
2022-10-09T18:08:17.235Z,5.00
2022-10-09T18:10:44.669Z,4.88
2022-10-09T18:13:11.484Z,4.35
2022-10-09T18:15:43.645Z,5.18
2022-10-09T18:18:11.274Z,3.95
2022-10-09T18:20:38.863Z,3.60
2022-10-09T18:23:06.227Z,3.55
2022-10-09T18:25:32.935Z,3.80
2022-10-09T18:27:59.741Z,3.65
2022-10-09T18:30:27.511Z,3.15
2022-10-09T18:32:53.901Z,4.32
2022-10-09T18:35:20.211Z,5.00
2022-10-09T18:37:46.594Z,6.15
2022-10-09T18:40:13.973Z,7.00
2022-10-09T18:42:40.436Z,8.85
2022-10-09T18:45:08.112Z,9.02
2022-10-09T18:47:35.949Z,7.90
2022-10-09T18:50:06.939Z,7.22
2022-10-09T18:52:35.245Z,5.67
2022-10-09T18:55:02.739Z,6.90
2022-10-09T18:57:29.627Z,7.05
2022-10-09T18:59:58.411Z,6.72
2022-10-09T19:02:27.230Z,8.68
2022-10-09T19:04:56.774Z,8.80
2022-10-09T19:07:29.539Z,10.98
2022-10-09T19:09:57.533Z,9.25
2022-10-09T19:12:24.883Z,8.02
2022-10-09T19:14:51.776Z,7.20
2022-10-09T19:17:18.501Z,5.00
2022-10-09T19:19:45.374Z,5.13
2022-10-09T19:22:16.563Z,4.93
2022-10-09T19:24:44.193Z,4.38
2022-10-09T19:27:14.155Z,4.97
2022-10-09T19:29:40.921Z,4.60
2022-10-09T19:32:07.343Z,4.50
2022-10-09T19:34:33.923Z,4.60
2022-10-09T19:37:00.502Z,5.15
2022-10-09T19:39:28.024Z,5.40
2022-10-09T19:41:54.723Z,6.50
2022-10-09T19:44:21.539Z,7.80
2022-10-09T19:46:48.489Z,7.63
2022-10-09T19:49:15.225Z,6.75
2022-10-09T19:51:41.553Z,10.50
2022-10-09T19:54:09.480Z,7.57
2022-10-09T19:56:37.370Z,6.47
2022-10-09T19:59:07.254Z,6.50
2022-10-09T20:01:35.970Z,8.45
2022-10-09T20:04:07.563Z,6.93
2022-10-09T20:06:36.772Z,6.45
2022-10-09T20:09:05.072Z,6.22
2022-10-09T20:11:31.730Z,6.95
2022-10-09T20:13:58.729Z,6.47
2022-10-09T20:16:25.861Z,6.95
2022-10-09T20:18:58.021Z,6.78
2022-10-09T20:21:25.678Z,8.30
2022-10-09T20:23:53.055Z,7.88
2022-10-09T20:26:32.367Z,7.22
2022-10-09T20:29:00.287Z,8.07
2022-10-09T20:31:27.279Z,7.03
2022-10-09T20:33:54.981Z,7.43
2022-10-09T20:36:23.947Z,7.03
2022-10-09T20:38:51.926Z,7.30
2022-10-09T20:41:18.653Z,7.15
2022-10-09T20:43:49.165Z,7.22
2022-10-09T20:46:15.908Z,7.55
2022-10-09T20:48:43.205Z,6.93
2022-10-09T20:51:09.939Z,7.90
2022-10-09T20:53:37.000Z,7.68
2022-10-09T20:56:06.778Z,6.72
2022-10-09T20:58:35.137Z,7.13
2022-10-09T21:01:06.279Z,6.43
2022-10-09T21:03:33.419Z,5.87
2022-10-09T21:06:03.815Z,6.07
2022-10-09T21:08:31.968Z,6.32
2022-10-09T21:11:04.248Z,5.78
2022-10-09T21:13:30.895Z,6.03
2022-10-09T21:15:57.522Z,5.00
2022-10-09T21:18:23.975Z,5.55
2022-10-09T21:20:54.727Z,5.25
2022-10-09T21:23:21.239Z,4.75
2022-10-09T21:25:50.012Z,5.90
2022-10-09T21:28:18.079Z,4.43
2022-10-09T21:30:44.759Z,4.65
2022-10-09T21:33:11.608Z,4.80
2022-10-09T21:35:40.445Z,4.50
2022-10-09T21:38:07.549Z,4.75
2022-10-09T21:40:33.912Z,4.68
2022-10-09T21:43:00.431Z,5.40
2022-10-09T21:45:26.865Z,3.60
2022-10-09T21:47:53.657Z,3.60
2022-10-09T21:50:20.004Z,3.92
2022-10-09T21:52:53.738Z,3.78
2022-10-09T21:55:20.246Z,3.78
2022-10-09T21:57:46.887Z,5.13
2022-10-09T22:00:13.465Z,3.33
2022-10-09T22:02:41.418Z,3.13
2022-10-09T22:05:08.291Z,3.33
2022-10-09T22:07:35.758Z,2.83
2022-10-09T22:10:03.875Z,4.10
2022-10-09T22:12:34.892Z,3.05
2022-10-09T22:15:01.992Z,3.60
2022-10-09T22:17:28.821Z,3.17
2022-10-09T22:19:56.239Z,3.20
2022-10-09T22:22:24.037Z,3.65
2022-10-09T22:24:51.929Z,2.80
2022-10-09T22:27:21.502Z,3.22
2022-10-09T22:29:47.900Z,3.65
2022-10-09T22:32:14.500Z,3.25
2022-10-09T22:34:40.837Z,2.90
2022-10-09T22:37:07.396Z,3.78
2022-10-09T22:39:34.200Z,3.20
2022-10-09T22:42:00.515Z,3.25
2022-10-09T22:44:26.953Z,3.35
2022-10-09T22:46:53.811Z,2.83
2022-10-09T22:49:21.655Z,3.72
2022-10-09T22:51:48.051Z,3.72
2022-10-09T22:54:14.878Z,3.50
2022-10-09T22:56:44.031Z,3.70
2022-10-09T22:59:12.042Z,3.60
2022-10-09T23:01:49.403Z,3.47
2022-10-09T23:04:18.027Z,4.00
2022-10-09T23:06:46.291Z,3.20
2022-10-09T23:09:15.724Z,3.20
2022-10-09T23:11:42.721Z,3.83
2022-10-09T23:14:11.130Z,3.58
2022-10-09T23:16:38.163Z,3.40
2022-10-09T23:19:07.220Z,4.10
2022-10-09T23:21:39.579Z,4.25
2022-10-09T23:24:08.007Z,3.83
2022-10-09T23:26:36.128Z,3.80
2022-10-09T23:29:05.767Z,4.47
2022-10-09T23:31:33.433Z,3.97
2022-10-09T23:34:00.374Z,3.72
2022-10-09T23:36:29.371Z,3.72
2022-10-09T23:39:04.246Z,4.32
2022-10-09T23:41:30.900Z,4.43
2022-10-09T23:44:03.657Z,3.72
2022-10-09T23:46:35.942Z,4.00
2022-10-09T23:49:02.489Z,4.60
2022-10-09T23:51:30.699Z,4.35
2022-10-09T23:53:58.268Z,3.80
2022-10-09T23:56:36.067Z,4.07
2022-10-09T23:59:05.983Z,4.70
